sensor_id;sensor_type;location;lat;lon;timestamp;temperature;humidity
32322;DHT22;61553;48.994;8.940;2022-08-05T00:02:02;20.20;99.90
32322;DHT22;61553;48.994;8.940;2022-08-05T00:04:28;20.10;99.90
32322;DHT22;61553;48.994;8.940;2022-08-05T00:06:54;20.10;99.90
32322;DHT22;61553;48.994;8.940;2022-08-05T00:09:19;20.10;99.90
32322;DHT22;61553;48.994;8.940;2022-08-05T00:11:45;20.10;99.90
32322;DHT22;61553;48.994;8.940;2022-08-05T00:14:11;20.10;99.90
32322;DHT22;61553;48.994;8.940;2022-08-05T00:16:37;20.00;99.90
32322;DHT22;61553;48.994;8.940;2022-08-05T00:19:03;20.10;99.90
32322;DHT22;61553;48.994;8.940;2022-08-05T00:21:29;20.10;99.90
32322;DHT22;61553;48.994;8.940;2022-08-05T00:23:54;20.10;99.90
32322;DHT22;61553;48.994;8.940;2022-08-05T00:26:20;20.10;99.90
32322;DHT22;61553;48.994;8.940;2022-08-05T00:28:46;20.00;99.90
32322;DHT22;61553;48.994;8.940;2022-08-05T00:31:12;20.00;99.90
32322;DHT22;61553;48.994;8.940;2022-08-05T00:33:38;20.00;99.90
32322;DHT22;61553;48.994;8.940;2022-08-05T00:36:04;20.10;99.90
32322;DHT22;61553;48.994;8.940;2022-08-05T00:38:30;20.20;99.90
32322;DHT22;61553;48.994;8.940;2022-08-05T00:40:56;20.40;99.90
32322;DHT22;61553;48.994;8.940;2022-08-05T00:43:23;20.60;99.90
32322;DHT22;61553;48.994;8.940;2022-08-05T00:45:49;20.90;99.90
32322;DHT22;61553;48.994;8.940;2022-08-05T00:48:19;21.60;99.90
32322;DHT22;61553;48.994;8.940;2022-08-05T00:50:47;22.00;99.90
32322;DHT22;61553;48.994;8.940;2022-08-05T00:53:15;22.70;99.90
32322;DHT22;61553;48.994;8.940;2022-08-05T00:55:42;23.10;99.90
32322;DHT22;61553;48.994;8.940;2022-08-05T00:58:13;23.30;99.90
32322;DHT22;61553;48.994;8.940;2022-08-05T01:00:41;23.50;99.50
32322;DHT22;61553;48.994;8.940;2022-08-05T01:03:07;23.80;99.10
32322;DHT22;61553;48.994;8.940;2022-08-05T01:05:32;23.90;98.60
32322;DHT22;61553;48.994;8.940;2022-08-05T01:07:58;24.00;98.30
32322;DHT22;61553;48.994;8.940;2022-08-05T01:10:29;24.00;98.10
32322;DHT22;61553;48.994;8.940;2022-08-05T01:12:57;24.10;98.00
32322;DHT22;61553;48.994;8.940;2022-08-05T01:15:33;24.20;97.80
32322;DHT22;61553;48.994;8.940;2022-08-05T01:18:06;24.20;97.60
32322;DHT22;61553;48.994;8.940;2022-08-05T01:20:47;24.20;97.60
32322;DHT22;61553;48.994;8.940;2022-08-05T01:23:21;24.20;97.50
32322;DHT22;61553;48.994;8.940;2022-08-05T01:31:11;24.20;97.50
32322;DHT22;61553;48.994;8.940;2022-08-05T01:33:47;24.10;97.60
32322;DHT22;61553;48.994;8.940;2022-08-05T01:36:16;24.10;97.80
32322;DHT22;61553;48.994;8.940;2022-08-05T01:38:45;24.00;97.90
32322;DHT22;61553;48.994;8.940;2022-08-05T01:41:14;24.00;98.10
32322;DHT22;61553;48.994;8.940;2022-08-05T01:43:41;23.90;98.40
32322;DHT22;61553;48.994;8.940;2022-08-05T01:46:08;23.90;98.40
32322;DHT22;61553;48.994;8.940;2022-08-05T01:48:34;23.90;98.60
32322;DHT22;61553;48.994;8.940;2022-08-05T01:51:02;23.90;98.90
32322;DHT22;61553;48.994;8.940;2022-08-05T01:53:31;23.90;99.00
32322;DHT22;61553;48.994;8.940;2022-08-05T01:56:00;23.80;99.30
32322;DHT22;61553;48.994;8.940;2022-08-05T01:58:27;23.70;99.50
32322;DHT22;61553;48.994;8.940;2022-08-05T02:00:53;23.60;99.70
32322;DHT22;61553;48.994;8.940;2022-08-05T02:03:35;23.60;99.90
32322;DHT22;61553;48.994;8.940;2022-08-05T02:06:02;23.50;99.90
32322;DHT22;61553;48.994;8.940;2022-08-05T02:08:30;23.40;99.90
32322;DHT22;61553;48.994;8.940;2022-08-05T02:11:01;23.40;99.90
32322;DHT22;61553;48.994;8.940;2022-08-05T02:13:49;23.30;99.90
32322;DHT22;61553;48.994;8.940;2022-08-05T02:16:26;23.30;99.90
32322;DHT22;61553;48.994;8.940;2022-08-05T02:18:58;23.20;99.90
32322;DHT22;61553;48.994;8.940;2022-08-05T02:21:33;23.10;99.90
32322;DHT22;61553;48.994;8.940;2022-08-05T02:24:05;23.00;99.90
32322;DHT22;61553;48.994;8.940;2022-08-05T02:26:39;22.90;99.90
32322;DHT22;61553;48.994;8.940;2022-08-05T02:29:08;22.90;99.90
32322;DHT22;61553;48.994;8.940;2022-08-05T02:31:37;22.80;99.90
32322;DHT22;61553;48.994;8.940;2022-08-05T02:34:07;22.70;99.90
32322;DHT22;61553;48.994;8.940;2022-08-05T02:36:35;22.60;99.90
32322;DHT22;61553;48.994;8.940;2022-08-05T02:39:03;22.60;99.90
32322;DHT22;61553;48.994;8.940;2022-08-05T02:41:31;22.50;99.90
32322;DHT22;61553;48.994;8.940;2022-08-05T02:43:58;22.40;99.90
32322;DHT22;61553;48.994;8.940;2022-08-05T02:46:26;22.40;99.90
32322;DHT22;61553;48.994;8.940;2022-08-05T02:48:53;22.20;99.90
32322;DHT22;61553;48.994;8.940;2022-08-05T02:51:20;22.10;99.90
32322;DHT22;61553;48.994;8.940;2022-08-05T02:53:46;22.00;99.90
32322;DHT22;61553;48.994;8.940;2022-08-05T02:56:13;21.90;99.90
32322;DHT22;61553;48.994;8.940;2022-08-05T02:58:40;21.90;99.90
32322;DHT22;61553;48.994;8.940;2022-08-05T03:01:09;21.90;99.90
32322;DHT22;61553;48.994;8.940;2022-08-05T03:03:39;21.80;99.90
32322;DHT22;61553;48.994;8.940;2022-08-05T03:06:06;21.80;99.90
32322;DHT22;61553;48.994;8.940;2022-08-05T03:08:32;21.70;99.90
32322;DHT22;61553;48.994;8.940;2022-08-05T03:10:58;21.80;99.90
32322;DHT22;61553;48.994;8.940;2022-08-05T03:13:24;21.70;99.90
32322;DHT22;61553;48.994;8.940;2022-08-05T03:15:50;21.70;99.90
32322;DHT22;61553;48.994;8.940;2022-08-05T03:18:15;21.70;99.90
32322;DHT22;61553;48.994;8.940;2022-08-05T03:20:41;21.70;99.90
32322;DHT22;61553;48.994;8.940;2022-08-05T03:23:08;21.70;99.90
32322;DHT22;61553;48.994;8.940;2022-08-05T03:25:36;21.60;99.90
32322;DHT22;61553;48.994;8.940;2022-08-05T03:28:04;21.60;99.90
32322;DHT22;61553;48.994;8.940;2022-08-05T03:30:31;21.50;99.90
32322;DHT22;61553;48.994;8.940;2022-08-05T03:32:59;21.40;99.90
32322;DHT22;61553;48.994;8.940;2022-08-05T03:35:26;21.30;99.90
32322;DHT22;61553;48.994;8.940;2022-08-05T03:37:56;21.20;99.90
32322;DHT22;61553;48.994;8.940;2022-08-05T03:40:22;21.10;99.90
32322;DHT22;61553;48.994;8.940;2022-08-05T03:42:48;21.10;99.90
32322;DHT22;61553;48.994;8.940;2022-08-05T03:45:14;21.10;99.90
32322;DHT22;61553;48.994;8.940;2022-08-05T03:47:40;21.10;99.90
32322;DHT22;61553;48.994;8.940;2022-08-05T03:50:06;21.10;99.90
32322;DHT22;61553;48.994;8.940;2022-08-05T03:52:34;21.10;99.90
32322;DHT22;61553;48.994;8.940;2022-08-05T03:55:08;21.00;99.90
32322;DHT22;61553;48.994;8.940;2022-08-05T03:57:37;21.00;99.90
32322;DHT22;61553;48.994;8.940;2022-08-05T04:00:04;21.00;99.90
32322;DHT22;61553;48.994;8.940;2022-08-05T04:02:31;20.90;99.90
32322;DHT22;61553;48.994;8.940;2022-08-05T04:04:59;20.90;99.90
32322;DHT22;61553;48.994;8.940;2022-08-05T04:07:26;20.90;99.90
32322;DHT22;61553;48.994;8.940;2022-08-05T04:09:53;20.90;99.90
32322;DHT22;61553;48.994;8.940;2022-08-05T04:12:19;20.90;99.90
32322;DHT22;61553;48.994;8.940;2022-08-05T04:14:45;20.90;99.90
32322;DHT22;61553;48.994;8.940;2022-08-05T04:17:11;21.00;99.90
32322;DHT22;61553;48.994;8.940;2022-08-05T04:19:44;21.00;99.90
32322;DHT22;61553;48.994;8.940;2022-08-05T04:22:10;21.10;99.90
32322;DHT22;61553;48.994;8.940;2022-08-05T04:24:40;21.20;99.90
32322;DHT22;61553;48.994;8.940;2022-08-05T04:27:06;21.20;99.90
32322;DHT22;61553;48.994;8.940;2022-08-05T04:29:32;21.30;99.90
32322;DHT22;61553;48.994;8.940;2022-08-05T04:31:58;21.30;99.90
32322;DHT22;61553;48.994;8.940;2022-08-05T04:34:23;21.40;99.90
32322;DHT22;61553;48.994;8.940;2022-08-05T04:36:49;21.40;99.90
32322;DHT22;61553;48.994;8.940;2022-08-05T04:39:15;21.50;99.90
32322;DHT22;61553;48.994;8.940;2022-08-05T04:41:40;21.50;99.90
32322;DHT22;61553;48.994;8.940;2022-08-05T04:44:06;21.50;99.90
32322;DHT22;61553;48.994;8.940;2022-08-05T04:46:31;21.60;99.90
32322;DHT22;61553;48.994;8.940;2022-08-05T04:48:57;21.50;99.90
32322;DHT22;61553;48.994;8.940;2022-08-05T04:51:23;21.60;99.90
32322;DHT22;61553;48.994;8.940;2022-08-05T04:53:48;21.60;99.90
32322;DHT22;61553;48.994;8.940;2022-08-05T04:56:14;21.60;99.90
32322;DHT22;61553;48.994;8.940;2022-08-05T04:58:40;21.70;99.90
32322;DHT22;61553;48.994;8.940;2022-08-05T05:01:06;21.80;99.90
32322;DHT22;61553;48.994;8.940;2022-08-05T05:03:32;21.90;99.90
32322;DHT22;61553;48.994;8.940;2022-08-05T05:05:57;22.00;99.90
32322;DHT22;61553;48.994;8.940;2022-08-05T05:08:23;22.30;99.90
32322;DHT22;61553;48.994;8.940;2022-08-05T05:10:48;22.50;99.90
32322;DHT22;61553;48.994;8.940;2022-08-05T05:13:15;22.90;99.90
32322;DHT22;61553;48.994;8.940;2022-08-05T05:15:42;23.30;99.90
32322;DHT22;61553;48.994;8.940;2022-08-05T05:18:08;23.60;99.90
32322;DHT22;61553;48.994;8.940;2022-08-05T05:20:34;24.00;99.90
32322;DHT22;61553;48.994;8.940;2022-08-05T05:23:01;24.30;99.90
32322;DHT22;61553;48.994;8.940;2022-08-05T05:25:29;24.50;99.90
32322;DHT22;61553;48.994;8.940;2022-08-05T05:27:55;25.30;99.90
32322;DHT22;61553;48.994;8.940;2022-08-05T05:30:22;26.40;99.90
32322;DHT22;61553;48.994;8.940;2022-08-05T05:32:48;26.80;99.70
32322;DHT22;61553;48.994;8.940;2022-08-05T05:35:13;26.30;99.90
32322;DHT22;61553;48.994;8.940;2022-08-05T05:37:58;25.90;99.90
32322;DHT22;61553;48.994;8.940;2022-08-05T05:40:26;25.60;99.90
32322;DHT22;61553;48.994;8.940;2022-08-05T05:42:52;25.30;99.90
32322;DHT22;61553;48.994;8.940;2022-08-05T05:45:19;25.10;99.90
32322;DHT22;61553;48.994;8.940;2022-08-05T05:47:45;24.80;99.90
32322;DHT22;61553;48.994;8.940;2022-08-05T05:50:15;24.60;99.90
32322;DHT22;61553;48.994;8.940;2022-08-05T05:52:42;24.40;99.90
32322;DHT22;61553;48.994;8.940;2022-08-05T05:55:10;24.40;99.90
32322;DHT22;61553;48.994;8.940;2022-08-05T05:57:37;24.40;99.90
32322;DHT22;61553;48.994;8.940;2022-08-05T06:00:05;24.50;99.90
32322;DHT22;61553;48.994;8.940;2022-08-05T06:02:31;24.80;99.90
32322;DHT22;61553;48.994;8.940;2022-08-05T06:04:57;25.10;99.90
32322;DHT22;61553;48.994;8.940;2022-08-05T06:07:22;25.60;99.90
32322;DHT22;61553;48.994;8.940;2022-08-05T06:09:48;26.20;99.90
32322;DHT22;61553;48.994;8.940;2022-08-05T06:12:14;26.70;99.90
32322;DHT22;61553;48.994;8.940;2022-08-05T06:14:39;27.20;99.80
32322;DHT22;61553;48.994;8.940;2022-08-05T06:17:09;27.50;99.10
32322;DHT22;61553;48.994;8.940;2022-08-05T06:19:35;28.50;97.30
32322;DHT22;61553;48.994;8.940;2022-08-05T06:22:06;32.00;90.40
32322;DHT22;61553;48.994;8.940;2022-08-05T06:24:32;34.30;77.40
32322;DHT22;61553;48.994;8.940;2022-08-05T06:26:58;35.80;67.50
32322;DHT22;61553;48.994;8.940;2022-08-05T06:29:24;34.60;65.90
32322;DHT22;61553;48.994;8.940;2022-08-05T06:31:50;33.50;65.40
32322;DHT22;61553;48.994;8.940;2022-08-05T06:34:15;32.40;67.90
32322;DHT22;61553;48.994;8.940;2022-08-05T06:36:41;31.70;69.40
32322;DHT22;61553;48.994;8.940;2022-08-05T06:39:07;30.60;72.30
32322;DHT22;61553;48.994;8.940;2022-08-05T06:41:32;29.80;77.20
32322;DHT22;61553;48.994;8.940;2022-08-05T06:43:58;29.20;81.20
32322;DHT22;61553;48.994;8.940;2022-08-05T06:46:24;28.70;84.40
32322;DHT22;61553;48.994;8.940;2022-08-05T06:48:50;28.20;87.40
32322;DHT22;61553;48.994;8.940;2022-08-05T06:51:18;27.80;92.10
32322;DHT22;61553;48.994;8.940;2022-08-05T06:53:44;27.40;93.10
32322;DHT22;61553;48.994;8.940;2022-08-05T06:56:10;27.10;93.60
32322;DHT22;61553;48.994;8.940;2022-08-05T06:58:35;26.80;96.60
32322;DHT22;61553;48.994;8.940;2022-08-05T07:01:03;26.60;99.90
32322;DHT22;61553;48.994;8.940;2022-08-05T07:03:28;26.60;99.90
32322;DHT22;61553;48.994;8.940;2022-08-05T07:05:54;27.90;99.90
32322;DHT22;61553;48.994;8.940;2022-08-05T07:08:20;30.10;97.40
32322;DHT22;61553;48.994;8.940;2022-08-05T07:10:53;30.30;95.60
32322;DHT22;61553;48.994;8.940;2022-08-05T07:13:18;31.10;94.50
32322;DHT22;61553;48.994;8.940;2022-08-05T07:16:03;31.80;93.80
32322;DHT22;61553;48.994;8.940;2022-08-05T07:18:47;33.60;90.50
32322;DHT22;61553;48.994;8.940;2022-08-05T07:21:12;34.00;86.60
32322;DHT22;61553;48.994;8.940;2022-08-05T07:23:38;33.90;80.10
32322;DHT22;61553;48.994;8.940;2022-08-05T07:26:04;33.70;76.40
32322;DHT22;61553;48.994;8.940;2022-08-05T07:28:30;33.40;78.10
32322;DHT22;61553;48.994;8.940;2022-08-05T07:30:56;33.40;78.00
32322;DHT22;61553;48.994;8.940;2022-08-05T07:33:22;34.80;75.50
32322;DHT22;61553;48.994;8.940;2022-08-05T07:35:48;36.40;68.40
32322;DHT22;61553;48.994;8.940;2022-08-05T07:38:14;36.60;67.00
32322;DHT22;61553;48.994;8.940;2022-08-05T07:40:40;36.80;64.40
32322;DHT22;61553;48.994;8.940;2022-08-05T07:43:05;37.10;61.70
32322;DHT22;61553;48.994;8.940;2022-08-05T07:45:31;37.30;60.70
32322;DHT22;61553;48.994;8.940;2022-08-05T07:47:57;37.40;59.90
32322;DHT22;61553;48.994;8.940;2022-08-05T07:50:24;37.90;58.00
32322;DHT22;61553;48.994;8.940;2022-08-05T07:52:49;39.20;55.60
32322;DHT22;61553;48.994;8.940;2022-08-05T07:55:15;39.60;54.00
32322;DHT22;61553;48.994;8.940;2022-08-05T07:57:41;40.80;52.60
32322;DHT22;61553;48.994;8.940;2022-08-05T08:00:07;42.80;48.60
32322;DHT22;61553;48.994;8.940;2022-08-05T08:02:33;44.20;46.20
32322;DHT22;61553;48.994;8.940;2022-08-05T08:05:00;44.90;44.10
32322;DHT22;61553;48.994;8.940;2022-08-05T08:07:26;44.50;43.60
32322;DHT22;61553;48.994;8.940;2022-08-05T08:09:52;45.20;42.40
32322;DHT22;61553;48.994;8.940;2022-08-05T08:12:19;45.00;41.90
32322;DHT22;61553;48.994;8.940;2022-08-05T08:14:45;44.70;42.10
32322;DHT22;61553;48.994;8.940;2022-08-05T08:17:11;44.90;40.00
32322;DHT22;61553;48.994;8.940;2022-08-05T08:19:37;44.50;40.60
32322;DHT22;61553;48.994;8.940;2022-08-05T08:22:03;44.80;40.10
32322;DHT22;61553;48.994;8.940;2022-08-05T08:24:30;44.90;40.10
32322;DHT22;61553;48.994;8.940;2022-08-05T08:26:55;43.20;41.10
32322;DHT22;61553;48.994;8.940;2022-08-05T08:29:21;42.80;41.00
32322;DHT22;61553;48.994;8.940;2022-08-05T08:31:47;41.50;42.50
32322;DHT22;61553;48.994;8.940;2022-08-05T08:34:13;41.70;42.50
32322;DHT22;61553;48.994;8.940;2022-08-05T08:36:39;41.00;42.20
32322;DHT22;61553;48.994;8.940;2022-08-05T08:39:05;41.70;42.40
32322;DHT22;61553;48.994;8.940;2022-08-05T08:41:32;42.60;41.30
32322;DHT22;61553;48.994;8.940;2022-08-05T08:44:00;43.70;40.50
32322;DHT22;61553;48.994;8.940;2022-08-05T08:46:30;44.70;38.30
32322;DHT22;61553;48.994;8.940;2022-08-05T08:48:57;44.20;38.80
32322;DHT22;61553;48.994;8.940;2022-08-05T08:51:26;45.00;38.30
32322;DHT22;61553;48.994;8.940;2022-08-05T08:53:52;45.50;37.40
32322;DHT22;61553;48.994;8.940;2022-08-05T08:56:18;45.60;36.50
32322;DHT22;61553;48.994;8.940;2022-08-05T08:58:46;47.10;35.10
32322;DHT22;61553;48.994;8.940;2022-08-05T09:01:12;47.30;35.10
32322;DHT22;61553;48.994;8.940;2022-08-05T09:03:37;46.00;35.60
32322;DHT22;61553;48.994;8.940;2022-08-05T09:06:05;44.60;36.60
32322;DHT22;61553;48.994;8.940;2022-08-05T09:08:30;44.90;36.10
32322;DHT22;61553;48.994;8.940;2022-08-05T09:10:56;45.20;35.40
32322;DHT22;61553;48.994;8.940;2022-08-05T09:13:22;47.00;34.90
32322;DHT22;61553;48.994;8.940;2022-08-05T09:15:48;47.40;34.20
32322;DHT22;61553;48.994;8.940;2022-08-05T09:18:14;48.00;33.80
32322;DHT22;61553;48.994;8.940;2022-08-05T09:20:39;46.80;34.30
32322;DHT22;61553;48.994;8.940;2022-08-05T09:23:15;46.50;34.10
32322;DHT22;61553;48.994;8.940;2022-08-05T09:25:43;47.60;33.40
32322;DHT22;61553;48.994;8.940;2022-08-05T09:28:16;47.60;33.30
32322;DHT22;61553;48.994;8.940;2022-08-05T09:30:44;49.90;32.30
32322;DHT22;61553;48.994;8.940;2022-08-05T09:33:16;50.40;31.40
32322;DHT22;61553;48.994;8.940;2022-08-05T09:35:57;50.50;31.00
32322;DHT22;61553;48.994;8.940;2022-08-05T09:38:23;50.70;30.80
32322;DHT22;61553;48.994;8.940;2022-08-05T09:40:49;49.60;30.20
32322;DHT22;61553;48.994;8.940;2022-08-05T09:43:32;49.60;30.30
32322;DHT22;61553;48.994;8.940;2022-08-05T09:45:58;48.40;30.80
32322;DHT22;61553;48.994;8.940;2022-08-05T09:48:32;49.20;30.60
32322;DHT22;61553;48.994;8.940;2022-08-05T09:51:06;49.50;30.20
32322;DHT22;61553;48.994;8.940;2022-08-05T09:53:52;48.20;30.90
32322;DHT22;61553;48.994;8.940;2022-08-05T09:56:29;47.60;32.10
32322;DHT22;61553;48.994;8.940;2022-08-05T09:59:08;47.90;31.60
32322;DHT22;61553;48.994;8.940;2022-08-05T10:01:36;46.00;31.40
32322;DHT22;61553;48.994;8.940;2022-08-05T10:04:05;46.30;31.50
32322;DHT22;61553;48.994;8.940;2022-08-05T10:06:32;46.40;31.60
32322;DHT22;61553;48.994;8.940;2022-08-05T10:09:16;46.30;31.20
32322;DHT22;61553;48.994;8.940;2022-08-05T10:11:43;46.10;31.00
32322;DHT22;61553;48.994;8.940;2022-08-05T10:14:30;46.90;30.90
32322;DHT22;61553;48.994;8.940;2022-08-05T10:17:11;46.30;31.10
32322;DHT22;61553;48.994;8.940;2022-08-05T10:19:37;46.20;31.50
32322;DHT22;61553;48.994;8.940;2022-08-05T10:22:03;46.20;31.30
32322;DHT22;61553;48.994;8.940;2022-08-05T10:24:31;46.10;31.40
32322;DHT22;61553;48.994;8.940;2022-08-05T10:26:58;45.70;31.60
32322;DHT22;61553;48.994;8.940;2022-08-05T10:29:25;46.30;31.90
32322;DHT22;61553;48.994;8.940;2022-08-05T10:31:56;45.20;32.40
32322;DHT22;61553;48.994;8.940;2022-08-05T10:34:22;44.00;33.30
32322;DHT22;61553;48.994;8.940;2022-08-05T10:36:48;43.30;33.30
32322;DHT22;61553;48.994;8.940;2022-08-05T10:39:18;42.80;33.70
32322;DHT22;61553;48.994;8.940;2022-08-05T10:44:22;41.10;34.40
32322;DHT22;61553;48.994;8.940;2022-08-05T10:46:52;40.30;35.70
32322;DHT22;61553;48.994;8.940;2022-08-05T10:49:19;39.80;36.00
32322;DHT22;61553;48.994;8.940;2022-08-05T10:51:49;39.20;36.50
32322;DHT22;61553;48.994;8.940;2022-08-05T10:54:16;38.50;37.20
32322;DHT22;61553;48.994;8.940;2022-08-05T10:56:50;37.70;37.50
32322;DHT22;61553;48.994;8.940;2022-08-05T10:59:17;37.60;38.00
32322;DHT22;61553;48.994;8.940;2022-08-05T11:01:44;36.90;38.40
32322;DHT22;61553;48.994;8.940;2022-08-05T11:04:20;36.50;39.90
32322;DHT22;61553;48.994;8.940;2022-08-05T11:07:03;36.50;39.30
32322;DHT22;61553;48.994;8.940;2022-08-05T11:17:35;35.30;41.10
32322;DHT22;61553;48.994;8.940;2022-08-05T11:20:30;35.00;41.10
32322;DHT22;61553;48.994;8.940;2022-08-05T11:22:53;35.00;42.30
32322;DHT22;61553;48.994;8.940;2022-08-05T11:33:52;35.00;42.30
32322;DHT22;61553;48.994;8.940;2022-08-05T11:36:45;35.20;42.20
32322;DHT22;61553;48.994;8.940;2022-08-05T11:39:13;35.30;41.70
32322;DHT22;61553;48.994;8.940;2022-08-05T11:41:40;35.50;41.60
32322;DHT22;61553;48.994;8.940;2022-08-05T11:46:50;35.00;42.80
32322;DHT22;61553;48.994;8.940;2022-08-05T11:49:21;34.60;43.20
32322;DHT22;61553;48.994;8.940;2022-08-05T11:51:51;34.30;43.60
32322;DHT22;61553;48.994;8.940;2022-08-05T11:54:23;34.00;43.40
32322;DHT22;61553;48.994;8.940;2022-08-05T11:56:52;34.00;42.90
32322;DHT22;61553;48.994;8.940;2022-08-05T11:59:26;34.10;43.40
32322;DHT22;61553;48.994;8.940;2022-08-05T12:02:01;34.20;43.50
32322;DHT22;61553;48.994;8.940;2022-08-05T12:07:07;34.50;42.00
32322;DHT22;61553;48.994;8.940;2022-08-05T12:09:38;34.60;42.20
32322;DHT22;61553;48.994;8.940;2022-08-05T12:12:07;34.80;41.40
32322;DHT22;61553;48.994;8.940;2022-08-05T12:14:38;34.80;43.30
32322;DHT22;61553;48.994;8.940;2022-08-05T12:17:08;34.80;42.50
32322;DHT22;61553;48.994;8.940;2022-08-05T12:20:00;34.50;42.70
32322;DHT22;61553;48.994;8.940;2022-08-05T12:22:27;34.50;41.90
32322;DHT22;61553;48.994;8.940;2022-08-05T12:24:54;34.40;42.10
32322;DHT22;61553;48.994;8.940;2022-08-05T12:27:25;34.30;43.10
32322;DHT22;61553;48.994;8.940;2022-08-05T12:30:17;34.30;42.40
32322;DHT22;61553;48.994;8.940;2022-08-05T12:32:47;34.30;42.90
32322;DHT22;61553;48.994;8.940;2022-08-05T12:35:17;34.30;43.00
32322;DHT22;61553;48.994;8.940;2022-08-05T12:37:45;34.10;43.10
32322;DHT22;61553;48.994;8.940;2022-08-05T12:40:11;33.90;43.30
32322;DHT22;61553;48.994;8.940;2022-08-05T12:42:38;33.90;44.00
32322;DHT22;61553;48.994;8.940;2022-08-05T12:45:08;34.00;43.60
32322;DHT22;61553;48.994;8.940;2022-08-05T12:47:35;34.10;43.30
32322;DHT22;61553;48.994;8.940;2022-08-05T12:50:14;34.10;43.40
32322;DHT22;61553;48.994;8.940;2022-08-05T12:52:41;34.10;43.20
32322;DHT22;61553;48.994;8.940;2022-08-05T12:55:23;34.00;43.30
32322;DHT22;61553;48.994;8.940;2022-08-05T12:57:54;34.10;42.90
32322;DHT22;61553;48.994;8.940;2022-08-05T13:00:24;34.00;43.00
32322;DHT22;61553;48.994;8.940;2022-08-05T13:02:53;34.00;43.50
32322;DHT22;61553;48.994;8.940;2022-08-05T13:05:21;33.90;43.40
32322;DHT22;61553;48.994;8.940;2022-08-05T13:07:47;33.90;44.50
32322;DHT22;61553;48.994;8.940;2022-08-05T13:10:14;33.90;44.50
32322;DHT22;61553;48.994;8.940;2022-08-05T13:12:42;34.00;44.10
32322;DHT22;61553;48.994;8.940;2022-08-05T13:15:10;34.10;43.10
32322;DHT22;61553;48.994;8.940;2022-08-05T13:17:36;34.00;43.20
32322;DHT22;61553;48.994;8.940;2022-08-05T13:20:14;33.90;43.40
32322;DHT22;61553;48.994;8.940;2022-08-05T13:22:48;33.90;43.80
32322;DHT22;61553;48.994;8.940;2022-08-05T13:25:16;34.00;44.40
32322;DHT22;61553;48.994;8.940;2022-08-05T13:27:49;33.90;43.90
32322;DHT22;61553;48.994;8.940;2022-08-05T13:30:16;34.00;44.10
32322;DHT22;61553;48.994;8.940;2022-08-05T13:32:42;33.80;44.10
32322;DHT22;61553;48.994;8.940;2022-08-05T13:35:13;33.60;44.50
32322;DHT22;61553;48.994;8.940;2022-08-05T13:37:39;33.70;44.40
32322;DHT22;61553;48.994;8.940;2022-08-05T13:40:05;33.70;44.80
32322;DHT22;61553;48.994;8.940;2022-08-05T13:42:31;33.80;44.30
32322;DHT22;61553;48.994;8.940;2022-08-05T13:44:57;33.60;45.00
32322;DHT22;61553;48.994;8.940;2022-08-05T13:47:23;33.60;44.80
32322;DHT22;61553;48.994;8.940;2022-08-05T13:49:50;33.60;44.90
32322;DHT22;61553;48.994;8.940;2022-08-05T13:52:21;33.50;44.80
32322;DHT22;61553;48.994;8.940;2022-08-05T13:54:47;33.40;44.90
32322;DHT22;61553;48.994;8.940;2022-08-05T13:57:14;33.20;46.00
32322;DHT22;61553;48.994;8.940;2022-08-05T13:59:41;33.20;45.40
32322;DHT22;61553;48.994;8.940;2022-08-05T14:02:08;33.10;45.50
32322;DHT22;61553;48.994;8.940;2022-08-05T14:04:42;33.10;45.40
32322;DHT22;61553;48.994;8.940;2022-08-05T14:07:27;33.00;48.10
32322;DHT22;61553;48.994;8.940;2022-08-05T14:09:53;32.70;49.40
32322;DHT22;61553;48.994;8.940;2022-08-05T14:12:19;32.30;50.10
32322;DHT22;61553;48.994;8.940;2022-08-05T14:14:45;32.30;51.00
32322;DHT22;61553;48.994;8.940;2022-08-05T14:17:11;32.20;51.50
32322;DHT22;61553;48.994;8.940;2022-08-05T14:19:37;32.10;52.00
32322;DHT22;61553;48.994;8.940;2022-08-05T14:22:03;32.10;52.20
32322;DHT22;61553;48.994;8.940;2022-08-05T14:24:29;32.00;52.60
32322;DHT22;61553;48.994;8.940;2022-08-05T14:26:55;31.70;52.80
32322;DHT22;61553;48.994;8.940;2022-08-05T14:29:20;31.60;53.50
32322;DHT22;61553;48.994;8.940;2022-08-05T14:31:46;31.60;53.30
32322;DHT22;61553;48.994;8.940;2022-08-05T14:34:12;31.50;53.30
32322;DHT22;61553;48.994;8.940;2022-08-05T14:36:37;31.50;54.10
32322;DHT22;61553;48.994;8.940;2022-08-05T14:39:03;31.30;54.20
32322;DHT22;61553;48.994;8.940;2022-08-05T14:41:31;31.20;54.10
32322;DHT22;61553;48.994;8.940;2022-08-05T14:43:56;31.00;54.30
32322;DHT22;61553;48.994;8.940;2022-08-05T14:46:24;30.90;54.30
32322;DHT22;61553;48.994;8.940;2022-08-05T14:48:50;31.00;55.00
32322;DHT22;61553;48.994;8.940;2022-08-05T14:51:17;31.10;54.40
32322;DHT22;61553;48.994;8.940;2022-08-05T14:53:42;31.10;54.60
32322;DHT22;61553;48.994;8.940;2022-08-05T14:56:08;30.90;54.80
32322;DHT22;61553;48.994;8.940;2022-08-05T14:58:34;30.80;55.40
32322;DHT22;61553;48.994;8.940;2022-08-05T15:00:59;30.60;55.80
32322;DHT22;61553;48.994;8.940;2022-08-05T15:03:29;30.60;56.40
32322;DHT22;61553;48.994;8.940;2022-08-05T15:05:55;30.60;55.90
32322;DHT22;61553;48.994;8.940;2022-08-05T15:08:20;30.70;55.70
32322;DHT22;61553;48.994;8.940;2022-08-05T15:10:46;30.90;55.50
32322;DHT22;61553;48.994;8.940;2022-08-05T15:13:12;30.80;55.60
32322;DHT22;61553;48.994;8.940;2022-08-05T15:15:37;30.80;55.20
32322;DHT22;61553;48.994;8.940;2022-08-05T15:18:04;30.60;55.60
32322;DHT22;61553;48.994;8.940;2022-08-05T15:20:29;30.50;55.90
32322;DHT22;61553;48.994;8.940;2022-08-05T15:22:55;30.40;56.20
32322;DHT22;61553;48.994;8.940;2022-08-05T15:25:22;30.10;56.90
32322;DHT22;61553;48.994;8.940;2022-08-05T15:27:48;30.00;56.50
32322;DHT22;61553;48.994;8.940;2022-08-05T15:30:14;29.90;57.10
32322;DHT22;61553;48.994;8.940;2022-08-05T15:32:39;29.70;57.30
32322;DHT22;61553;48.994;8.940;2022-08-05T15:35:05;29.50;57.50
32322;DHT22;61553;48.994;8.940;2022-08-05T15:37:31;29.50;58.00
32322;DHT22;61553;48.994;8.940;2022-08-05T15:39:57;29.20;58.50
32322;DHT22;61553;48.994;8.940;2022-08-05T15:42:23;29.20;58.70
32322;DHT22;61553;48.994;8.940;2022-08-05T15:44:49;29.10;58.90
32322;DHT22;61553;48.994;8.940;2022-08-05T15:47:15;29.10;59.20
32322;DHT22;61553;48.994;8.940;2022-08-05T15:49:40;29.10;59.10
32322;DHT22;61553;48.994;8.940;2022-08-05T15:52:06;29.10;58.30
32322;DHT22;61553;48.994;8.940;2022-08-05T15:54:32;29.10;58.20
32322;DHT22;61553;48.994;8.940;2022-08-05T15:56:57;29.00;58.80
32322;DHT22;61553;48.994;8.940;2022-08-05T15:59:23;28.90;59.30
32322;DHT22;61553;48.994;8.940;2022-08-05T16:01:51;28.80;59.30
32322;DHT22;61553;48.994;8.940;2022-08-05T16:04:17;28.60;61.70
32322;DHT22;61553;48.994;8.940;2022-08-05T16:06:43;28.40;63.00